Time;durP1;ratioP1;P1;durP2;ratioP2;P2;SDS_P1;SDS_P2;PMS_P1;PMS_P2;Temp;Humidity;BMP_temperature;BMP_pressure;BME280_temperature;BME280_humidity;BME280_pressure;Samples;Min_cycle;Max_cycle;Signal;HPM_P1;HPM_P2
2022/05/04 00:00:50;;;;;;;3.45;3.10;;;13.80;99.90;;;;;;7389074;19;20214;-73
2022/05/04 00:03:16;;;;;;;3.20;2.90;;;13.60;99.90;;;;;;7388882;19;20163;-75
2022/05/04 00:05:43;;;;;;;4.10;2.85;;;13.70;99.90;;;;;;7391342;19;20168;-75
2022/05/04 00:08:09;;;;;;;4.22;2.78;;;13.90;99.90;;;;;;7386432;19;20665;-75
2022/05/04 00:10:36;;;;;;;3.80;3.13;;;14.10;99.90;;;;;;7390581;19;20154;-74
2022/05/04 00:13:02;;;;;;;4.28;3.50;;;14.30;99.90;;;;;;7395473;19;20651;-74
2022/05/04 00:15:29;;;;;;;4.28;3.10;;;14.30;99.90;;;;;;7392984;19;20130;-73
2022/05/04 00:17:55;;;;;;;3.72;3.05;;;14.30;99.90;;;;;;7387445;19;20138;-74
2022/05/04 00:20:21;;;;;;;4.55;3.08;;;14.30;99.90;;;;;;7388622;19;20230;-75
2022/05/04 00:22:47;;;;;;;3.20;2.88;;;14.30;99.90;;;;;;7388573;19;20163;-73
2022/05/04 00:25:12;;;;;;;3.72;3.05;;;14.30;99.90;;;;;;7388310;19;20200;-75
2022/05/04 00:27:38;;;;;;;4.72;3.08;;;14.30;99.90;;;;;;7387083;19;20498;-73
2022/05/04 00:30:05;;;;;;;3.95;3.38;;;14.40;99.90;;;;;;7388018;19;20138;-75
2022/05/04 00:32:32;;;;;;;4.80;3.10;;;14.60;99.90;;;;;;7391092;19;20155;-74
2022/05/04 00:34:58;;;;;;;4.17;3.07;;;14.50;99.90;;;;;;7388076;19;20156;-74
2022/05/04 00:37:24;;;;;;;4.95;3.45;;;14.40;99.90;;;;;;7388728;19;20122;-74
2022/05/04 00:39:49;;;;;;;3.55;2.88;;;14.30;99.90;;;;;;7387427;19;20194;-75
2022/05/04 00:42:20;;;;;;;3.50;3.10;;;14.10;99.90;;;;;;7387297;19;20217;-74
2022/05/04 00:44:49;;;;;;;4.70;3.10;;;14.10;99.90;;;;;;7388749;19;20140;-74
2022/05/04 00:47:18;;;;;;;3.30;2.70;;;14.00;99.90;;;;;;7387285;19;20134;-74
2022/05/04 00:49:50;;;;;;;3.47;3.17;;;14.20;99.90;;;;;;7397502;19;20138;-74
2022/05/04 00:52:17;;;;;;;4.70;3.10;;;13.90;99.90;;;;;;7396428;19;20134;-74
2022/05/04 00:54:45;;;;;;;5.75;3.25;;;13.80;99.90;;;;;;7389223;19;20170;-75
2022/05/04 00:57:14;;;;;;;3.30;2.92;;;13.80;99.90;;;;;;7386612;19;20495;-75
2022/05/04 00:59:41;;;;;;;5.40;3.15;;;13.80;99.90;;;;;;7387184;19;20139;-74
2022/05/04 01:02:07;;;;;;;3.85;3.05;;;13.70;99.90;;;;;;7387097;19;20606;-74
2022/05/04 01:04:32;;;;;;;4.07;3.30;;;13.60;99.90;;;;;;7386408;19;20154;-75
2022/05/04 01:06:58;;;;;;;3.55;2.95;;;13.40;99.90;;;;;;7386789;19;20134;-74
2022/05/04 01:09:24;;;;;;;3.53;3.20;;;13.50;99.90;;;;;;7389148;19;20131;-74
2022/05/04 01:11:50;;;;;;;3.88;3.10;;;13.50;99.90;;;;;;7387005;19;20139;-75
2022/05/04 01:14:17;;;;;;;3.00;2.70;;;13.70;99.90;;;;;;7388397;19;20618;-73
2022/05/04 01:16:46;;;;;;;3.58;3.28;;;13.80;99.90;;;;;;7386217;19;20142;-75
2022/05/04 01:19:12;;;;;;;5.60;3.30;;;13.90;99.90;;;;;;7388236;19;20127;-74
2022/05/04 01:21:39;;;;;;;5.15;3.63;;;14.10;99.90;;;;;;7386023;19;20152;-75
2022/05/04 01:24:05;;;;;;;5.85;3.25;;;14.20;99.90;;;;;;7386565;19;20587;-74
2022/05/04 01:26:31;;;;;;;3.60;3.30;;;14.20;99.90;;;;;;7387632;19;20146;-75
2022/05/04 01:28:57;;;;;;;6.90;3.90;;;14.10;99.90;;;;;;7405449;19;20151;-74
2022/05/04 01:31:23;;;;;;;4.13;3.42;;;14.20;99.90;;;;;;7390793;19;20135;-75
2022/05/04 01:33:49;;;;;;;6.47;3.38;;;14.30;99.90;;;;;;7391194;19;20158;-74
2022/05/04 01:36:14;;;;;;;4.30;3.35;;;14.40;99.90;;;;;;7385529;19;20202;-74
2022/05/04 01:38:40;;;;;;;5.25;3.88;;;14.30;99.90;;;;;;7386869;19;20138;-74
2022/05/04 01:42:02;;;;;;;4.95;3.85;;;14.30;99.90;;;;;;7384639;19;20181;-74
2022/05/04 01:43:52;;;;;;;3.80;2.97;;;13.90;99.90;;;;;;7389117;19;20159;-75
2022/05/04 01:46:17;;;;;;;4.88;3.03;;;13.80;99.90;;;;;;7386029;19;20494;-74
2022/05/04 01:48:44;;;;;;;4.13;3.45;;;13.70;99.90;;;;;;7386565;19;20218;-75
2022/05/04 01:51:09;;;;;;;4.05;3.53;;;13.50;99.90;;;;;;7396963;19;20150;-75
2022/05/04 01:53:35;;;;;;;3.83;3.33;;;13.60;99.90;;;;;;7387634;19;20901;-75
2022/05/04 01:56:06;;;;;;;5.68;3.92;;;13.80;99.90;;;;;;7386635;19;20143;-74
2022/05/04 01:58:32;;;;;;;5.07;3.53;;;13.90;99.90;;;;;;7385631;19;20138;-75
2022/05/04 02:00:58;;;;;;;3.85;3.35;;;14.10;99.90;;;;;;7388946;19;20627;-75
2022/05/04 02:03:26;;;;;;;4.28;3.20;;;14.00;99.90;;;;;;7387069;19;20151;-75
2022/05/04 02:05:52;;;;;;;6.10;3.67;;;13.70;99.90;;;;;;7390722;19;20161;-75
2022/05/04 02:08:18;;;;;;;3.78;3.30;;;13.30;99.90;;;;;;7383619;19;20135;-75
2022/05/04 02:10:45;;;;;;;5.30;3.28;;;13.30;99.90;;;;;;7392146;19;20139;-75
2022/05/04 02:13:11;;;;;;;3.88;3.47;;;13.10;99.90;;;;;;7396034;19;20396;-74
2022/05/04 02:15:36;;;;;;;4.77;3.40;;;13.20;99.90;;;;;;7401339;19;20131;-74
2022/05/04 02:18:02;;;;;;;3.85;3.45;;;13.40;99.90;;;;;;7391815;19;20147;-75
2022/05/04 02:20:28;;;;;;;6.43;3.65;;;13.50;99.90;;;;;;7394233;19;20145;-74
2022/05/04 02:22:54;;;;;;;4.20;3.38;;;13.70;99.90;;;;;;7396467;19;20139;-74
2022/05/04 02:25:19;;;;;;;4.53;3.30;;;13.80;99.90;;;;;;7394422;19;20139;-75
2022/05/04 02:27:45;;;;;;;3.58;3.20;;;13.80;99.90;;;;;;7394181;19;20595;-74
2022/05/04 02:30:13;;;;;;;4.60;3.80;;;13.80;99.90;;;;;;7393893;19;20170;-74
2022/05/04 02:32:39;;;;;;;4.20;3.67;;;13.80;99.90;;;;;;7393168;19;20141;-75
2022/05/04 02:37:57;;;;;;;3.78;3.15;;;13.80;99.90;;;;;;7393096;19;20138;-75
2022/05/04 02:40:26;;;;;;;4.60;3.72;;;14.00;99.90;;;;;;7391460;19;20501;-75
2022/05/04 02:42:52;;;;;;;3.55;3.15;;;14.10;99.90;;;;;;7391947;19;20609;-75
2022/05/04 02:45:18;;;;;;;3.30;3.00;;;14.00;99.90;;;;;;7396212;19;21047;-75
2022/05/04 02:47:44;;;;;;;5.72;3.80;;;14.00;99.90;;;;;;7392623;19;20182;-75
2022/05/04 02:50:10;;;;;;;4.17;3.77;;;14.10;99.90;;;;;;7393789;19;20131;-75
2022/05/04 02:52:36;;;;;;;4.70;3.53;;;14.10;99.90;;;;;;7393525;19;20135;-75
2022/05/04 02:55:02;;;;;;;3.57;3.27;;;14.10;99.90;;;;;;7394676;19;20147;-75
2022/05/04 02:57:28;;;;;;;4.37;3.20;;;13.90;99.90;;;;;;7397991;19;20134;-75
2022/05/04 02:59:54;;;;;;;4.00;3.43;;;13.80;99.90;;;;;;7395734;19;20545;-74
2022/05/04 03:02:29;;;;;;;4.43;3.65;;;13.90;99.90;;;;;;7396910;19;20134;-74
2022/05/04 03:05:00;;;;;;;6.70;3.50;;;14.00;99.90;;;;;;7391997;19;20482;-75
2022/05/04 03:07:26;;;;;;;3.70;3.40;;;13.90;99.90;;;;;;7390200;19;20142;-75
2022/05/04 03:09:53;;;;;;;5.20;3.55;;;13.90;99.90;;;;;;7391478;19;20158;-75
2022/05/04 03:12:19;;;;;;;4.80;3.60;;;13.90;99.90;;;;;;7390933;19;20147;-75
2022/05/04 03:14:45;;;;;;;6.95;4.20;;;13.90;99.90;;;;;;7391297;19;20145;-75
2022/05/04 03:17:11;;;;;;;6.37;4.30;;;14.00;99.90;;;;;;7391886;19;20665;-75
2022/05/04 03:19:37;;;;;;;5.60;4.35;;;13.80;99.90;;;;;;7397721;19;20123;-75
2022/05/04 03:22:04;;;;;;;5.43;4.40;;;13.80;99.90;;;;;;7391375;19;20141;-75
2022/05/04 03:24:31;;;;;;;5.73;4.40;;;14.00;99.90;;;;;;7389883;19;20134;-74
2022/05/04 03:26:57;;;;;;;5.07;3.97;;;14.10;99.90;;;;;;7389446;19;20131;-74
2022/05/04 03:29:23;;;;;;;4.53;4.07;;;14.20;99.90;;;;;;7386897;19;20622;-74
2022/05/04 03:31:48;;;;;;;5.13;4.30;;;14.20;99.90;;;;;;7390719;19;20147;-74
2022/05/04 03:34:14;;;;;;;5.43;4.23;;;14.20;99.90;;;;;;7393402;19;20477;-74
2022/05/04 03:36:40;;;;;;;4.07;3.67;;;14.10;99.90;;;;;;7388772;19;20587;-75
2022/05/04 03:39:07;;;;;;;4.70;3.47;;;14.10;99.90;;;;;;7392006;19;20150;-75
2022/05/04 03:41:33;;;;;;;4.05;3.55;;;14.20;99.90;;;;;;7391991;19;20513;-74
2022/05/04 03:43:59;;;;;;;5.72;3.97;;;14.00;99.90;;;;;;7391018;19;20161;-74
2022/05/04 03:46:27;;;;;;;4.83;4.13;;;13.90;99.90;;;;;;7390460;19;20206;-75
2022/05/04 03:48:58;;;;;;;4.63;3.72;;;13.90;99.90;;;;;;7387847;19;20150;-74
2022/05/04 03:51:25;;;;;;;4.97;3.45;;;13.90;99.90;;;;;;7389322;19;20157;-74
2022/05/04 03:53:52;;;;;;;4.68;3.65;;;13.80;99.90;;;;;;7389778;19;20527;-74
2022/05/04 03:56:19;;;;;;;4.32;3.63;;;13.80;99.90;;;;;;7390997;19;20146;-74
2022/05/04 03:58:45;;;;;;;3.95;3.50;;;13.80;99.90;;;;;;7391714;19;20134;-74
2022/05/04 04:01:13;;;;;;;4.50;4.10;;;13.80;99.90;;;;;;7392391;19;20153;-74
2022/05/04 04:03:39;;;;;;;4.20;3.80;;;13.80;99.90;;;;;;7390332;19;20148;-74
2022/05/04 04:06:05;;;;;;;4.05;3.65;;;13.90;99.90;;;;;;7388775;19;20528;-74
2022/05/04 04:08:31;;;;;;;4.22;3.72;;;14.00;99.90;;;;;;7388072;19;20143;-74
2022/05/04 04:10:58;;;;;;;4.20;3.60;;;14.10;99.90;;;;;;7388789;19;20130;-74
2022/05/04 04:13:24;;;;;;;4.93;3.72;;;14.20;99.90;;;;;;7390342;19;20177;-74
2022/05/04 04:15:51;;;;;;;4.00;3.33;;;14.10;99.90;;;;;;7388605;19;20157;-75
2022/05/04 04:18:22;;;;;;;4.60;4.20;;;14.10;99.90;;;;;;7390030;19;20580;-73
2022/05/04 04:23:43;;;;;;;11.73;5.25;;;13.90;99.90;;;;;;7387218;19;20139;-73
2022/05/04 04:26:10;;;;;;;10.38;4.88;;;13.80;99.90;;;;;;7395559;19;20119;-75
2022/05/04 04:28:38;;;;;;;4.32;3.47;;;13.90;99.90;;;;;;7389414;19;20621;-74
2022/05/04 04:31:05;;;;;;;4.32;3.92;;;13.80;99.90;;;;;;7387844;19;20135;-74
2022/05/04 04:33:31;;;;;;;4.82;3.85;;;13.90;99.90;;;;;;7387663;19;20478;-74
2022/05/04 04:35:57;;;;;;;4.57;3.88;;;14.10;99.90;;;;;;7393157;19;20157;-75
2022/05/04 04:38:23;;;;;;;5.07;4.13;;;14.10;99.90;;;;;;7388971;19;20145;-74
2022/05/04 04:40:50;;;;;;;7.43;3.95;;;13.90;99.90;;;;;;7386584;19;20142;-74
2022/05/04 04:43:16;;;;;;;5.05;4.53;;;13.90;99.90;;;;;;7387061;19;20131;-75
2022/05/04 04:45:46;;;;;;;5.90;5.00;;;14.10;99.90;;;;;;7394254;19;20602;-74
2022/05/04 04:48:13;;;;;;;7.10;5.60;;;14.30;99.90;;;;;;7393965;19;20123;-74
2022/05/04 04:50:39;;;;;;;7.70;4.97;;;14.20;99.90;;;;;;7388033;19;20153;-74
2022/05/04 04:53:05;;;;;;;5.50;4.63;;;14.30;99.90;;;;;;7387648;19;20201;-74
2022/05/04 04:55:31;;;;;;;7.28;4.90;;;14.10;99.90;;;;;;7390196;19;20115;-74
2022/05/04 04:57:57;;;;;;;6.40;4.70;;;14.20;99.90;;;;;;7387886;19;20141;-73
2022/05/04 05:00:24;;;;;;;10.77;6.10;;;14.20;99.90;;;;;;7390955;19;20134;-75
2022/05/04 05:02:50;;;;;;;7.70;5.20;;;14.20;99.90;;;;;;7386688;19;20155;-74
2022/05/04 05:05:17;;;;;;;8.95;5.20;;;14.20;99.90;;;;;;7388457;19;20470;-75
2022/05/04 05:07:43;;;;;;;7.93;5.35;;;14.30;99.90;;;;;;7386675;19;20143;-75
2022/05/04 05:10:09;;;;;;;7.13;4.80;;;14.40;99.90;;;;;;7395088;19;20217;-74
2022/05/04 05:12:35;;;;;;;7.73;5.10;;;14.50;99.90;;;;;;7388987;19;20134;-74
2022/05/04 05:17:45;;;;;;;7.63;5.65;;;14.50;99.90;;;;;;7386098;19;20160;-75
2022/05/04 05:20:12;;;;;;;6.82;5.47;;;14.40;99.90;;;;;;7387448;19;20202;-75
2022/05/04 05:22:38;;;;;;;6.27;5.43;;;14.20;99.90;;;;;;7388165;19;20130;-74
2022/05/04 05:25:05;;;;;;;6.53;5.25;;;14.20;99.90;;;;;;7386005;19;20198;-74
2022/05/04 05:27:31;;;;;;;7.25;5.15;;;14.30;99.90;;;;;;7385857;19;20478;-78
2022/05/04 05:29:57;;;;;;;7.80;5.53;;;14.50;99.90;;;;;;7384611;19;20139;-74
2022/05/04 05:32:23;;;;;;;7.13;5.07;;;14.50;99.90;;;;;;7388890;19;20206;-74
2022/05/04 05:34:50;;;;;;;7.03;5.38;;;14.60;99.90;;;;;;7394989;19;20166;-75
2022/05/04 05:37:17;;;;;;;6.32;4.97;;;14.60;99.90;;;;;;7385720;19;20171;-74
2022/05/04 05:39:43;;;;;;;5.80;4.80;;;14.50;99.90;;;;;;7388387;19;20138;-76
2022/05/04 05:42:09;;;;;;;8.33;5.93;;;14.50;99.90;;;;;;7388414;19;20162;-75
2022/05/04 05:44:35;;;;;;;6.30;4.97;;;14.40;99.90;;;;;;7389803;19;20153;-74
2022/05/04 05:47:01;;;;;;;6.25;5.38;;;14.30;99.90;;;;;;7387727;19;20512;-74
2022/05/04 05:49:28;;;;;;;6.32;4.88;;;14.40;99.90;;;;;;7386146;19;20166;-76
2022/05/04 05:51:54;;;;;;;7.80;5.05;;;14.50;99.90;;;;;;7390553;19;20162;-75
2022/05/04 05:54:20;;;;;;;8.20;5.50;;;14.60;99.90;;;;;;7394510;19;20625;-75
2022/05/04 05:56:46;;;;;;;5.53;4.93;;;14.70;99.90;;;;;;7388029;19;20142;-75
2022/05/04 05:59:14;;;;;;;5.93;4.83;;;14.60;99.90;;;;;;7387040;19;20153;-75
2022/05/04 06:01:41;;;;;;;6.00;5.07;;;14.60;99.90;;;;;;7388896;19;20215;-75
2022/05/04 06:04:08;;;;;;;6.53;5.20;;;14.70;99.90;;;;;;7384912;19;20130;-76
2022/05/04 06:06:33;;;;;;;8.17;5.87;;;14.70;99.90;;;;;;7385445;19;20527;-74
2022/05/04 06:08:59;;;;;;;7.10;5.43;;;14.80;99.90;;;;;;7383396;19;20166;-75
2022/05/04 06:11:25;;;;;;;8.55;6.13;;;14.90;99.90;;;;;;7386119;19;20150;-76
2022/05/04 06:13:54;;;;;;;11.30;5.80;;;15.00;99.90;;;;;;7393723;19;20222;-76
2022/05/04 06:16:21;;;;;;;9.60;5.53;;;15.00;99.90;;;;;;7397867;19;20876;-75
2022/05/04 06:18:47;;;;;;;7.65;6.85;;;14.90;99.90;;;;;;7385094;19;20142;-76
2022/05/04 06:21:13;;;;;;;7.03;5.45;;;15.00;99.90;;;;;;7384422;19;20226;-75
2022/05/04 06:23:39;;;;;;;10.77;5.23;;;14.90;99.90;;;;;;7386243;19;20139;-74
2022/05/04 06:26:04;;;;;;;5.72;5.13;;;14.90;99.90;;;;;;7389208;19;20703;-71
2022/05/04 06:28:30;;;;;;;7.13;5.90;;;15.10;99.90;;;;;;7384559;19;20174;-73
2022/05/04 06:36:25;;;;;;;8.57;5.68;;;15.10;99.90;;;;;;7388662;19;20202;-71
2022/05/04 06:38:51;;;;;;;7.65;5.78;;;15.10;99.90;;;;;;7393718;19;20402;-73
2022/05/04 06:41:18;;;;;;;8.60;5.63;;;15.20;99.90;;;;;;7386965;19;20621;-72
2022/05/04 06:43:45;;;;;;;9.85;6.00;;;15.30;99.90;;;;;;7387631;19;20141;-75
2022/05/04 06:46:11;;;;;;;6.43;5.43;;;15.10;99.90;;;;;;7386895;19;20134;-73
2022/05/04 06:48:37;;;;;;;7.25;5.53;;;15.10;99.90;;;;;;7386093;19;20127;-74
2022/05/04 06:51:03;;;;;;;7.53;5.95;;;15.10;99.90;;;;;;7388170;19;20202;-74
2022/05/04 06:53:29;;;;;;;8.02;5.90;;;15.10;99.90;;;;;;7386531;19;20135;-72
2022/05/04 06:55:54;;;;;;;10.35;6.10;;;15.10;99.90;;;;;;7392250;19;20143;-72
2022/05/04 06:58:20;;;;;;;8.23;6.10;;;15.20;99.90;;;;;;7393532;19;20150;-75
2022/05/04 07:00:46;;;;;;;6.85;5.45;;;15.20;99.90;;;;;;7392000;19;20143;-73
2022/05/04 07:03:12;;;;;;;9.48;5.97;;;15.20;99.90;;;;;;7395992;19;20711;-73
2022/05/04 07:05:37;;;;;;;7.57;5.50;;;15.30;99.90;;;;;;7395337;19;20517;-76
2022/05/04 07:08:04;;;;;;;7.10;5.55;;;15.30;99.90;;;;;;7394057;19;20157;-73
2022/05/04 07:10:29;;;;;;;7.53;5.25;;;15.40;99.90;;;;;;7394254;19;20638;-74
2022/05/04 07:12:55;;;;;;;7.95;5.60;;;15.30;99.90;;;;;;7397763;19;20147;-73
2022/05/04 07:15:21;;;;;;;6.57;5.30;;;15.60;99.90;;;;;;7396552;19;20134;-74
2022/05/04 07:17:49;;;;;;;7.18;4.95;;;15.70;99.90;;;;;;7393450;19;20138;-74
2022/05/04 07:20:15;;;;;;;7.07;5.47;;;16.10;99.90;;;;;;7394689;19;20141;-73
2022/05/04 07:22:41;;;;;;;8.85;5.00;;;16.10;99.90;;;;;;7393709;19;20194;-74
2022/05/04 07:25:07;;;;;;;7.03;4.88;;;16.20;99.90;;;;;;7394396;19;20131;-72
2022/05/04 07:27:33;;;;;;;7.15;4.72;;;16.10;99.90;;;;;;7391726;19;20135;-73
2022/05/04 07:29:59;;;;;;;7.47;4.13;;;16.10;99.90;;;;;;7391441;19;20660;-73
2022/05/04 07:32:24;;;;;;;5.18;3.72;;;16.10;99.90;;;;;;7392471;19;20211;-73
2022/05/04 07:34:50;;;;;;;6.90;3.80;;;16.00;99.90;;;;;;7398039;19;20137;-74
2022/05/04 07:37:17;;;;;;;5.47;3.92;;;16.10;99.90;;;;;;7394175;19;20135;-74
2022/05/04 07:42:27;;;;;;;6.20;3.60;;;16.20;99.90;;;;;;7391265;19;20501;-74
2022/05/04 07:45:01;;;;;;;4.97;3.80;;;16.20;99.90;;;;;;7389401;19;20146;-73
2022/05/04 07:47:32;;;;;;;5.35;3.22;;;16.10;99.90;;;;;;7388620;19;20142;-74
2022/05/04 07:49:58;;;;;;;5.80;3.30;;;16.20;99.90;;;;;;7394266;19;20607;-74
2022/05/04 07:52:24;;;;;;;3.70;3.00;;;16.20;99.90;;;;;;7393596;19;20134;-74
2022/05/04 07:54:50;;;;;;;4.05;3.03;;;16.30;99.90;;;;;;7393976;19;20146;-73
2022/05/04 07:57:17;;;;;;;2.97;2.40;;;16.40;99.90;;;;;;7396626;19;20155;-74
2022/05/04 08:04:16;;;;;;;6.45;2.53;;;16.50;99.90;;;;;;7403747;19;20498;-73
2022/05/04 08:05:13;;;;;;;2.83;2.40;;;16.70;99.90;;;;;;7391189;19;20467;-74
2022/05/04 08:07:39;;;;;;;4.05;2.40;;;16.70;99.90;;;;;;7387628;19;20131;-73
2022/05/04 08:10:05;;;;;;;3.85;2.80;;;16.70;99.90;;;;;;7396062;19;20587;-73
2022/05/04 08:12:33;;;;;;;6.07;2.70;;;16.70;99.90;;;;;;7393507;19;20229;-75
2022/05/04 08:14:59;;;;;;;4.03;3.00;;;16.80;99.90;;;;;;7393643;19;20146;-74
2022/05/04 08:17:25;;;;;;;3.45;2.75;;;16.90;99.90;;;;;;7390788;19;20152;-75
2022/05/04 08:19:52;;;;;;;3.05;2.55;;;16.90;99.90;;;;;;7393300;19;20499;-74
2022/05/04 08:22:18;;;;;;;3.90;2.90;;;16.70;99.90;;;;;;7398942;19;20146;-74
2022/05/04 08:24:43;;;;;;;3.22;2.80;;;16.70;99.90;;;;;;7392826;19;20130;-74
2022/05/04 08:27:09;;;;;;;5.00;3.00;;;16.70;99.90;;;;;;7390953;19;20155;-74
2022/05/04 08:29:39;;;;;;;5.18;2.90;;;16.60;99.90;;;;;;7387124;19;20166;-73
2022/05/04 08:32:06;;;;;;;2.88;2.58;;;16.60;99.90;;;;;;7389586;19;20198;-75
2022/05/04 08:34:31;;;;;;;3.15;2.40;;;16.50;99.90;;;;;;7390384;19;20210;-73
2022/05/04 08:36:57;;;;;;;3.13;2.42;;;16.50;99.90;;;;;;7389092;19;20151;-73
2022/05/04 08:39:23;;;;;;;8.52;7.07;;;16.60;99.90;;;;;;7387572;19;20467;-74
2022/05/04 08:41:51;;;;;;;6.72;5.25;;;16.60;99.90;;;;;;7387531;19;20560;-73
2022/05/04 08:44:17;;;;;;;4.53;2.80;;;16.60;99.90;;;;;;7394633;19;20206;-74
2022/05/04 08:46:44;;;;;;;5.00;2.25;;;16.40;99.90;;;;;;7392660;19;20471;-72
2022/05/04 08:49:12;;;;;;;2.58;2.00;;;16.40;99.90;;;;;;7389318;19;20138;-74
2022/05/04 08:51:39;;;;;;;4.18;2.63;;;16.40;99.90;;;;;;7393322;19;20142;-74
2022/05/04 08:54:07;;;;;;;2.60;2.20;;;16.20;99.90;;;;;;7390319;19;20147;-73
2022/05/04 08:56:34;;;;;;;3.42;2.40;;;16.30;99.90;;;;;;7389393;19;20158;-75
2022/05/04 08:59:04;;;;;;;2.40;2.20;;;16.20;99.90;;;;;;7390340;19;20475;-72
2022/05/04 09:01:37;;;;;;;3.63;2.22;;;16.20;99.90;;;;;;7392615;19;20146;-73
2022/05/04 09:04:04;;;;;;;3.15;2.35;;;16.20;99.90;;;;;;7395805;19;20162;-73
2022/05/04 09:06:32;;;;;;;3.78;2.78;;;16.20;99.90;;;;;;7391037;19;20502;-73
2022/05/04 09:09:10;;;;;;;4.57;3.05;;;16.20;99.90;;;;;;7389648;19;20142;-73
2022/05/04 09:11:46;;;;;;;2.78;2.58;;;16.10;99.90;;;;;;7389275;19;20529;-73
2022/05/04 09:14:26;;;;;;;4.78;2.78;;;16.20;99.90;;;;;;7389912;19;20209;-73
2022/05/04 09:16:52;;;;;;;4.57;2.80;;;15.80;99.90;;;;;;7386381;19;20621;-74
2022/05/04 09:19:19;;;;;;;3.78;3.13;;;15.80;99.90;;;;;;7385748;19;20167;-74
2022/05/04 09:21:48;;;;;;;4.30;2.95;;;15.90;99.90;;;;;;7388381;19;20135;-73
2022/05/04 09:24:28;;;;;;;4.38;3.40;;;15.90;99.90;;;;;;7394813;19;20146;-73
2022/05/04 09:26:57;;;;;;;4.05;3.13;;;16.00;99.90;;;;;;7390963;19;20148;-76
2022/05/04 09:29:37;;;;;;;5.57;3.53;;;15.90;99.90;;;;;;7385049;19;20268;-75
2022/05/04 09:32:15;;;;;;;6.50;3.75;;;15.80;99.90;;;;;;7386141;19;20131;-73
2022/05/04 09:34:42;;;;;;;6.10;3.70;;;15.80;99.90;;;;;;7383394;19;20608;-72
2022/05/04 09:45:53;;;;;;;5.30;4.10;;;16.10;99.90;;;;;;7393631;19;20143;-73
2022/05/04 09:48:31;;;;;;;4.70;4.25;;;16.20;99.90;;;;;;7396264;19;20152;-75
2022/05/04 09:51:05;;;;;;;9.43;4.20;;;16.40;99.90;;;;;;7388681;19;20135;-72
2022/05/04 09:53:31;;;;;;;5.22;4.45;;;16.50;99.90;;;;;;7390043;19;20591;-75
2022/05/04 09:55:57;;;;;;;7.78;5.18;;;16.60;99.90;;;;;;7387511;19;20664;-73
2022/05/04 09:58:26;;;;;;;4.63;4.15;;;16.70;99.90;;;;;;7388401;19;20135;-73
2022/05/04 10:00:52;;;;;;;8.13;5.60;;;16.90;99.90;;;;;;7388430;19;20630;-74
2022/05/04 10:03:21;;;;;;;5.68;4.80;;;17.10;99.90;;;;;;7385733;19;20135;-75
2022/05/04 10:05:48;;;;;;;5.43;4.55;;;17.30;99.90;;;;;;7387556;19;20629;-74
2022/05/04 10:08:14;;;;;;;9.75;7.05;;;17.60;99.90;;;;;;7388714;19;20262;-72
2022/05/04 10:10:43;;;;;;;7.85;5.32;;;17.70;99.90;;;;;;7389607;19;20227;-74
2022/05/04 10:13:10;;;;;;;5.85;5.25;;;17.70;99.90;;;;;;7388587;19;20135;-74
2022/05/04 10:15:40;;;;;;;7.95;5.10;;;17.70;99.90;;;;;;7391315;19;20130;-73
2022/05/04 10:18:10;;;;;;;5.63;4.95;;;17.60;99.90;;;;;;7391679;19;20246;-74
2022/05/04 10:20:44;;;;;;;8.80;5.78;;;17.60;99.90;;;;;;7388291;19;20161;-73
2022/05/04 10:23:22;;;;;;;7.85;6.15;;;17.60;99.90;;;;;;7386479;19;20561;-74
2022/05/04 10:25:50;;;;;;;6.57;5.53;;;17.60;99.90;;;;;;7388713;19;20146;-74
2022/05/04 10:28:17;;;;;;;6.28;5.47;;;17.60;99.90;;;;;;7383208;19;20151;-73
2022/05/04 10:30:55;;;;;;;5.78;5.15;;;17.50;99.90;;;;;;7390718;19;20205;-73
2022/05/04 10:33:34;;;;;;;6.00;5.40;;;17.50;99.90;;;;;;7397152;19;20234;-74
2022/05/04 10:36:28;;;;;;;6.70;5.00;;;17.50;99.90;;;;;;7394805;19;20540;-74
2022/05/04 10:39:02;;;;;;;7.53;5.38;;;17.50;99.90;;;;;;7394968;19;20147;-74
2022/05/04 10:41:38;;;;;;;5.88;4.80;;;17.50;99.90;;;;;;7393685;19;20146;-73
2022/05/04 10:44:09;;;;;;;6.07;4.75;;;17.60;99.90;;;;;;7397164;19;20149;-73
2022/05/04 10:46:38;;;;;;;5.53;4.30;;;17.80;99.90;;;;;;7390502;19;20134;-73
2022/05/04 10:49:07;;;;;;;6.85;4.47;;;18.00;99.90;;;;;;7391026;19;20614;-74
2022/05/04 10:51:38;;;;;;;4.97;4.38;;;18.20;99.90;;;;;;7394567;19;20143;-73
2022/05/04 10:54:09;;;;;;;4.85;4.38;;;18.30;99.90;;;;;;7394679;19;20142;-71
2022/05/04 10:56:44;;;;;;;5.25;4.70;;;18.40;99.90;;;;;;7394282;19;20165;-73
2022/05/04 10:59:11;;;;;;;6.15;4.80;;;18.60;99.90;;;;;;7390157;19;20147;-75
2022/05/04 11:01:39;;;;;;;5.38;4.88;;;18.70;99.90;;;;;;7390892;19;20139;-74
2022/05/04 11:04:11;;;;;;;5.22;4.63;;;18.70;99.90;;;;;;7392965;19;20202;-73
2022/05/04 11:06:41;;;;;;;3.72;3.42;;;18.70;99.90;;;;;;7395340;19;20587;-73
2022/05/04 11:09:10;;;;;;;5.07;4.07;;;18.70;99.90;;;;;;7390338;19;20578;-73
2022/05/04 11:11:37;;;;;;;4.07;3.67;;;18.50;99.90;;;;;;7388404;19;20150;-74
2022/05/04 11:14:05;;;;;;;3.42;3.10;;;18.60;99.90;;;;;;7387351;19;20134;-73
2022/05/04 11:16:31;;;;;;;4.53;3.92;;;18.70;99.90;;;;;;7392825;19;20139;-72
2022/05/04 11:19:01;;;;;;;4.18;3.17;;;18.80;99.90;;;;;;7393636;19;20154;-71
2022/05/04 11:21:29;;;;;;;3.83;2.97;;;18.80;99.90;;;;;;7391090;19;20150;-74
2022/05/04 11:23:57;;;;;;;2.90;2.47;;;18.90;99.90;;;;;;7393057;19;20134;-72
2022/05/04 11:26:35;;;;;;;3.03;2.42;;;18.80;99.90;;;;;;7392110;19;20134;-72
2022/05/04 11:29:01;;;;;;;4.75;2.30;;;18.90;99.90;;;;;;7391050;19;20154;-74
2022/05/04 11:31:26;;;;;;;2.92;2.40;;;19.00;99.90;;;;;;7391051;19;20141;-74
2022/05/04 11:33:52;;;;;;;4.28;2.20;;;19.00;99.90;;;;;;7392811;19;20203;-74
2022/05/04 11:36:20;;;;;;;4.15;2.75;;;19.10;99.90;;;;;;7392639;19;20155;-72
2022/05/04 11:38:47;;;;;;;5.03;3.05;;;19.00;99.90;;;;;;7394104;19;20139;-74
2022/05/04 11:41:14;;;;;;;6.55;3.78;;;19.10;99.90;;;;;;7389260;19;20185;-74
2022/05/04 11:43:41;;;;;;;4.97;3.38;;;19.00;99.90;;;;;;7394087;19;20147;-74
2022/05/04 11:46:09;;;;;;;4.97;3.00;;;18.90;99.90;;;;;;7393226;19;20134;-73
2022/05/04 11:48:46;;;;;;;5.35;3.38;;;19.00;99.90;;;;;;7381277;19;20161;-73
2022/05/04 11:51:15;;;;;;;3.17;2.67;;;19.00;99.90;;;;;;7393545;19;20142;-72
2022/05/04 11:53:41;;;;;;;2.63;2.40;;;19.00;99.90;;;;;;7391455;19;20150;-74
2022/05/04 11:56:10;;;;;;;3.35;2.90;;;19.20;99.90;;;;;;7396473;19;20131;-74
2022/05/04 11:58:40;;;;;;;3.40;2.70;;;19.30;99.90;;;;;;7394113;19;20155;-74
2022/05/04 12:01:08;;;;;;;3.75;2.72;;;19.50;99.90;;;;;;7392038;19;20131;-74
2022/05/04 12:03:37;;;;;;;2.88;2.50;;;19.60;99.90;;;;;;7394525;19;20142;-74
2022/05/04 12:06:11;;;;;;;3.72;2.72;;;19.60;99.90;;;;;;7392978;19;20135;-74
2022/05/04 12:08:41;;;;;;;3.10;2.75;;;19.60;99.90;;;;;;7390464;19;20605;-75
2022/05/04 12:11:08;;;;;;;3.05;2.80;;;19.80;99.90;;;;;;7394695;19;20135;-73
2022/05/04 12:13:39;;;;;;;3.67;2.88;;;19.60;99.90;;;;;;7388619;19;20509;-75
2022/05/04 12:16:07;;;;;;;3.90;2.53;;;19.50;99.90;;;;;;7388308;19;20498;-72
2022/05/04 12:18:35;;;;;;;3.40;2.75;;;19.60;99.90;;;;;;7389342;19;20127;-75
2022/05/04 12:21:12;;;;;;;3.38;2.80;;;19.60;99.90;;;;;;7389193;19;20657;-75
2022/05/04 12:23:40;;;;;;;5.55;3.13;;;19.80;99.90;;;;;;7395854;19;20166;-76
2022/05/04 12:26:07;;;;;;;4.57;2.97;;;19.90;99.90;;;;;;7394765;19;20543;-76
2022/05/04 12:28:34;;;;;;;3.22;2.78;;;19.70;99.90;;;;;;7387057;19;20164;-76
2022/05/04 12:33:48;;;;;;;4.28;2.67;;;19.90;99.90;;;;;;7384955;19;20153;-73
2022/05/04 12:36:15;;;;;;;3.13;2.30;;;19.90;99.90;;;;;;7393135;19;20126;-77
2022/05/04 12:38:47;;;;;;;3.20;2.50;;;19.90;99.90;;;;;;7388710;19;20604;-73
2022/05/04 12:41:19;;;;;;;4.13;2.30;;;19.80;99.90;;;;;;7388959;19;20158;-73
2022/05/04 12:43:47;;;;;;;3.80;2.63;;;19.80;99.90;;;;;;7391300;19;20574;-72
2022/05/04 12:46:17;;;;;;;3.78;2.00;;;19.60;99.90;;;;;;7386327;19;20147;-72
2022/05/04 12:48:45;;;;;;;4.10;2.13;;;19.60;99.90;;;;;;7385827;19;20143;-72
2022/05/04 12:51:14;;;;;;;3.60;2.20;;;19.60;99.90;;;;;;7389588;19;20143;-73
2022/05/04 12:53:40;;;;;;;2.75;2.08;;;19.90;99.90;;;;;;7385224;19;20184;-77
2022/05/04 12:58:53;;;;;;;2.88;2.00;;;19.70;99.90;;;;;;7389801;19;20134;-73
2022/05/04 13:01:26;;;;;;;2.03;1.73;;;20.00;99.90;;;;;;7389832;19;20151;-76
2022/05/04 13:03:52;;;;;;;4.00;2.28;;;19.90;99.90;;;;;;7391008;19;20138;-77
2022/05/04 13:06:21;;;;;;;4.05;2.03;;;19.80;99.90;;;;;;7387656;19;20142;-73
2022/05/04 13:08:48;;;;;;;3.88;2.30;;;19.80;99.90;;;;;;7391513;19;20145;-77
2022/05/04 13:11:19;;;;;;;2.40;2.10;;;19.80;99.90;;;;;;7396350;19;20190;-76
2022/05/04 13:13:45;;;;;;;6.07;2.20;;;19.80;99.90;;;;;;7389214;19;20138;-76
2022/05/04 13:16:12;;;;;;;2.88;2.30;;;19.70;99.90;;;;;;7389567;19;20150;-78
2022/05/04 13:18:39;;;;;;;2.80;1.90;;;19.60;99.90;;;;;;7392154;19;20162;-77
2022/05/04 13:21:05;;;;;;;2.17;1.85;;;19.50;99.90;;;;;;7390450;19;20190;-72